createdAt,value
2018-07-27T00:02:14.015Z,3.00
2018-07-27T00:04:42.603Z,2.80
2018-07-27T00:07:11.247Z,3.60
2018-07-27T00:09:39.711Z,3.23
2018-07-27T00:12:08.240Z,2.93
2018-07-27T00:14:36.801Z,3.57
2018-07-27T00:17:05.359Z,4.17
2018-07-27T00:19:33.886Z,3.80
2018-07-27T00:22:02.623Z,4.00
2018-07-27T00:24:31.137Z,3.33
2018-07-27T00:26:59.681Z,3.60
2018-07-27T00:29:28.556Z,3.70
2018-07-27T00:31:57.100Z,3.70
2018-07-27T00:34:25.635Z,2.90
2018-07-27T00:36:54.082Z,3.10
2018-07-27T00:39:22.656Z,3.43
2018-07-27T00:41:51.140Z,3.67
2018-07-27T00:44:19.849Z,3.00
2018-07-27T00:46:48.319Z,2.53
2018-07-27T00:49:16.837Z,3.50
2018-07-27T00:51:45.333Z,3.33
2018-07-27T00:54:13.859Z,3.47
2018-07-27T00:56:42.431Z,3.40
2018-07-27T00:59:11.177Z,3.70
2018-07-27T01:01:39.635Z,3.27
2018-07-27T01:04:08.319Z,3.40
2018-07-27T01:06:37.062Z,3.50
2018-07-27T01:09:08.015Z,3.50
2018-07-27T01:11:36.481Z,3.60
2018-07-27T01:14:05.183Z,3.70
2018-07-27T01:16:33.659Z,4.00
2018-07-27T01:19:02.140Z,3.70
2018-07-27T01:21:30.751Z,4.47
2018-07-27T01:23:59.242Z,3.80
2018-07-27T01:26:27.751Z,4.00
2018-07-27T01:28:56.187Z,4.60
2018-07-27T01:31:24.679Z,4.20
2018-07-27T01:33:53.575Z,3.50
2018-07-27T01:36:22.122Z,4.07
2018-07-27T01:38:50.523Z,4.20
2018-07-27T01:41:18.995Z,3.87
2018-07-27T01:43:47.488Z,3.90
2018-07-27T01:46:16.025Z,4.10
2018-07-27T01:48:44.730Z,4.47
2018-07-27T01:51:13.183Z,3.70
2018-07-27T01:53:41.593Z,3.73
2018-07-27T01:56:10.203Z,3.80
2018-07-27T01:58:38.635Z,4.63
2018-07-27T02:01:07.353Z,4.00
2018-07-27T02:03:35.839Z,4.70
2018-07-27T02:06:04.322Z,4.47
2018-07-27T02:08:32.831Z,3.27
2018-07-27T02:11:01.443Z,4.30
2018-07-27T02:13:29.871Z,3.47
2018-07-27T02:15:58.305Z,4.40
2018-07-27T02:18:27.110Z,4.30
2018-07-27T02:20:55.679Z,3.83
2018-07-27T02:23:24.209Z,3.50
2018-07-27T02:25:52.847Z,3.80
2018-07-27T02:28:21.367Z,3.80
2018-07-27T02:30:49.880Z,4.30
2018-07-27T02:33:18.405Z,4.87
2018-07-27T02:35:46.885Z,3.80
2018-07-27T02:38:15.272Z,4.80
2018-07-27T02:40:43.770Z,4.10
2018-07-27T02:43:12.228Z,3.93
2018-07-27T02:45:40.717Z,3.57
2018-07-27T02:48:09.423Z,3.50
2018-07-27T02:50:37.955Z,3.87
2018-07-27T02:53:06.432Z,3.90
2018-07-27T02:55:35.004Z,3.80
2018-07-27T02:58:03.406Z,4.67
2018-07-27T03:00:31.888Z,3.83
2018-07-27T03:03:00.595Z,4.20
2018-07-27T03:05:28.999Z,3.50
2018-07-27T03:07:57.507Z,3.87
2018-07-27T03:10:26.148Z,3.77
2018-07-27T03:12:54.597Z,3.90
2018-07-27T03:15:23.011Z,5.03
2018-07-27T03:17:51.475Z,4.90
2018-07-27T03:20:19.964Z,4.17
2018-07-27T03:22:48.471Z,4.50
2018-07-27T03:25:17.175Z,4.20
2018-07-27T03:27:45.627Z,4.37
2018-07-27T03:30:14.144Z,4.17
2018-07-27T03:32:42.757Z,4.40
2018-07-27T03:35:11.156Z,3.83
2018-07-27T03:37:39.637Z,4.20
2018-07-27T03:40:08.119Z,4.20
2018-07-27T03:42:36.615Z,4.90
2018-07-27T03:45:05.395Z,4.67
2018-07-27T03:47:34.026Z,4.30
2018-07-27T03:50:02.531Z,4.07
2018-07-27T03:52:31.115Z,4.33
2018-07-27T03:54:59.755Z,4.03
2018-07-27T03:57:28.235Z,4.57
2018-07-27T03:59:56.663Z,4.67
2018-07-27T04:02:25.352Z,4.20
2018-07-27T04:04:53.979Z,4.90
2018-07-27T04:07:22.501Z,4.70
2018-07-27T04:09:50.983Z,3.93
2018-07-27T04:12:23.439Z,4.70
2018-07-27T04:14:52.897Z,4.90
2018-07-27T04:17:21.287Z,4.50
2018-07-27T04:19:50.187Z,4.40
2018-07-27T04:22:18.887Z,3.73
2018-07-27T04:24:47.347Z,4.23
2018-07-27T04:27:15.760Z,4.20
2018-07-27T04:29:44.399Z,4.63
2018-07-27T04:32:12.824Z,4.90
2018-07-27T04:34:41.563Z,4.87
2018-07-27T04:37:10.147Z,4.57
2018-07-27T04:39:38.744Z,4.83
2018-07-27T04:42:07.191Z,4.50
2018-07-27T04:44:35.639Z,4.47
2018-07-27T04:47:04.231Z,4.93
2018-07-27T04:49:32.722Z,4.67
2018-07-27T04:52:01.394Z,4.40
2018-07-27T04:54:29.832Z,4.57
2018-07-27T04:56:58.401Z,5.10
2018-07-27T04:59:26.904Z,5.43
2018-07-27T05:01:55.448Z,5.87
2018-07-27T05:04:23.951Z,4.73
2018-07-27T05:06:52.495Z,5.10
2018-07-27T05:09:23.252Z,5.50
2018-07-27T05:11:52.299Z,4.37
2018-07-27T05:14:20.828Z,5.30
2018-07-27T05:16:49.314Z,4.60
2018-07-27T05:19:17.968Z,5.13
2018-07-27T05:21:46.359Z,5.70
2018-07-27T05:24:14.782Z,5.17
2018-07-27T05:26:43.286Z,5.30
2018-07-27T05:29:11.782Z,4.83
2018-07-27T05:31:40.289Z,4.37
2018-07-27T05:34:09.131Z,5.23
2018-07-27T05:36:37.567Z,4.40
2018-07-27T05:39:08.975Z,6.20
2018-07-27T05:41:37.443Z,4.90
2018-07-27T05:44:06.039Z,5.23
2018-07-27T05:46:34.733Z,5.03
2018-07-27T05:49:03.229Z,5.27
2018-07-27T05:51:31.699Z,4.50
2018-07-27T05:54:00.251Z,5.10
2018-07-27T05:56:29.263Z,4.63
2018-07-27T05:58:57.683Z,5.20
2018-07-27T06:01:26.455Z,4.70
2018-07-27T06:03:55.032Z,4.80
2018-07-27T06:06:23.415Z,6.03
2018-07-27T06:08:52.167Z,4.77
2018-07-27T06:11:20.695Z,4.67
2018-07-27T06:13:49.167Z,5.20
2018-07-27T06:16:17.969Z,5.20
2018-07-27T06:18:46.485Z,4.77
2018-07-27T06:21:15.163Z,4.73
2018-07-27T06:23:44.372Z,4.70
2018-07-27T06:26:13.143Z,4.17
2018-07-27T06:28:41.672Z,4.93
2018-07-27T06:31:10.450Z,4.60
2018-07-27T06:33:38.968Z,4.43
2018-07-27T06:36:07.406Z,4.87
2018-07-27T06:38:35.877Z,4.60
2018-07-27T06:41:04.356Z,4.67
2018-07-27T06:43:32.779Z,4.43
2018-07-27T06:46:01.220Z,4.43
2018-07-27T06:48:29.759Z,4.47
2018-07-27T06:50:58.215Z,4.23
2018-07-27T06:53:26.738Z,4.20
2018-07-27T06:55:55.120Z,3.60
2018-07-27T06:58:23.618Z,5.10
2018-07-27T07:00:52.459Z,5.40
2018-07-27T07:03:20.886Z,4.03
2018-07-27T07:05:49.694Z,4.40
2018-07-27T07:08:18.358Z,4.80
2018-07-27T07:10:46.894Z,4.43
2018-07-27T07:13:15.379Z,4.20
2018-07-27T07:15:43.899Z,5.10
2018-07-27T07:18:12.478Z,4.83
2018-07-27T07:20:41.067Z,5.23
2018-07-27T07:23:09.835Z,4.87
2018-07-27T07:25:38.397Z,6.00
2018-07-27T07:28:06.795Z,5.97
2018-07-27T07:30:35.255Z,5.30
2018-07-27T07:33:03.751Z,6.17
2018-07-27T07:35:32.355Z,6.20
2018-07-27T07:38:00.829Z,6.00
2018-07-27T07:40:29.339Z,5.23
2018-07-27T07:42:57.940Z,5.87
2018-07-27T07:45:26.704Z,6.13
2018-07-27T07:47:55.091Z,5.60
2018-07-27T07:50:23.595Z,5.60
2018-07-27T07:52:52.283Z,6.10
2018-07-27T07:55:21.084Z,6.43
2018-07-27T07:57:49.592Z,5.87
2018-07-27T08:00:18.139Z,6.00
2018-07-27T08:02:46.807Z,6.10
2018-07-27T08:05:15.284Z,5.50
2018-07-27T08:07:44.016Z,4.90
2018-07-27T08:10:12.423Z,5.40
2018-07-27T08:12:40.959Z,6.83
2018-07-27T08:15:09.739Z,5.60
2018-07-27T08:17:38.243Z,5.10
2018-07-27T08:20:06.807Z,5.10
2018-07-27T08:22:35.371Z,5.90
2018-07-27T08:25:03.799Z,5.90
2018-07-27T08:27:32.243Z,5.70
2018-07-27T08:30:00.927Z,5.73
2018-07-27T08:32:29.332Z,5.37
2018-07-27T08:34:57.830Z,4.47
2018-07-27T08:37:26.504Z,5.43
2018-07-27T08:39:55.244Z,5.30
2018-07-27T08:42:23.719Z,5.57
2018-07-27T08:44:52.232Z,6.47
2018-07-27T08:47:20.726Z,4.73
2018-07-27T08:49:49.235Z,5.33
2018-07-27T08:52:18.129Z,5.30
2018-07-27T08:54:46.643Z,5.47
2018-07-27T08:57:15.108Z,5.00
2018-07-27T08:59:43.763Z,4.90
2018-07-27T09:02:12.275Z,4.90
2018-07-27T09:04:40.672Z,5.20
2018-07-27T09:07:09.227Z,5.60
2018-07-27T09:09:37.696Z,5.87
2018-07-27T09:12:07.115Z,5.70
2018-07-27T09:14:35.965Z,5.70
2018-07-27T09:17:04.420Z,5.50
2018-07-27T09:19:32.975Z,5.43
2018-07-27T09:22:01.544Z,5.30
2018-07-27T09:24:30.287Z,6.53
2018-07-27T09:26:58.584Z,6.33
2018-07-27T09:29:27.183Z,5.43
2018-07-27T09:31:55.647Z,6.40
2018-07-27T09:34:24.179Z,4.70
2018-07-27T09:36:53.100Z,5.70
2018-07-27T09:39:21.540Z,5.63
2018-07-27T09:41:50.091Z,4.63
2018-07-27T09:44:18.483Z,5.13
2018-07-27T09:46:46.918Z,5.97
2018-07-27T09:49:15.371Z,6.13
2018-07-27T09:51:44.240Z,4.80
2018-07-27T09:54:12.655Z,5.60
2018-07-27T09:56:43.083Z,4.90
2018-07-27T09:59:12.471Z,5.87
2018-07-27T10:01:40.947Z,4.97
2018-07-27T10:04:09.551Z,5.70
2018-07-27T10:06:38.230Z,6.00
2018-07-27T10:09:07.920Z,4.90
2018-07-27T10:11:36.557Z,5.80
2018-07-27T10:14:05.268Z,5.40
2018-07-27T10:16:33.779Z,4.67
2018-07-27T10:19:05.260Z,6.10
2018-07-27T10:21:33.886Z,6.03
2018-07-27T10:24:02.404Z,6.30
2018-07-27T10:26:30.786Z,5.60
2018-07-27T10:28:59.275Z,5.57
2018-07-27T10:31:27.804Z,5.47
2018-07-27T10:33:56.463Z,5.57
2018-07-27T10:36:24.862Z,4.93
2018-07-27T10:38:53.463Z,5.30
2018-07-27T10:41:22.155Z,5.80
2018-07-27T10:43:50.536Z,4.93
2018-07-27T10:46:18.922Z,4.90
2018-07-27T10:48:47.523Z,5.70
2018-07-27T10:51:16.064Z,6.00
2018-07-27T10:53:44.543Z,5.63
2018-07-27T10:56:13.192Z,4.70
2018-07-27T10:58:41.779Z,5.20
2018-07-27T11:01:10.191Z,4.90
2018-07-27T11:03:38.659Z,4.57
2018-07-27T11:06:07.154Z,4.33
2018-07-27T11:08:35.635Z,5.50
2018-07-27T11:11:04.279Z,4.70
2018-07-27T11:13:33.214Z,5.57
2018-07-27T11:16:01.712Z,4.93
2018-07-27T11:18:30.905Z,5.70
2018-07-27T11:21:01.272Z,5.27
2018-07-27T11:23:32.770Z,5.03
2018-07-27T11:26:01.216Z,5.57
2018-07-27T11:28:29.839Z,4.83
2018-07-27T11:30:59.677Z,4.80
2018-07-27T11:33:29.013Z,3.90
2018-07-27T11:35:57.554Z,4.70
2018-07-27T11:38:26.052Z,4.93
2018-07-27T11:40:55.325Z,5.17
2018-07-27T11:43:23.734Z,5.47
2018-07-27T11:45:52.411Z,4.77
2018-07-27T11:48:20.843Z,4.47
2018-07-27T11:50:49.239Z,4.70
2018-07-27T11:53:17.855Z,4.63
2018-07-27T11:55:46.315Z,4.70
2018-07-27T11:58:14.790Z,3.87
2018-07-27T12:00:43.433Z,3.87
2018-07-27T12:03:11.883Z,4.60
2018-07-27T12:05:40.439Z,5.00
2018-07-27T12:08:08.924Z,4.17
2018-07-27T12:10:37.485Z,4.87
2018-07-27T12:13:06.127Z,4.27
2018-07-27T12:15:34.851Z,4.03
2018-07-27T12:18:03.262Z,4.60
2018-07-27T12:20:32.431Z,4.43
2018-07-27T12:23:00.895Z,4.20
2018-07-27T12:25:29.375Z,4.03
2018-07-27T12:27:57.871Z,4.60
2018-07-27T12:30:26.379Z,4.63
2018-07-27T12:32:54.883Z,4.27
2018-07-27T12:35:23.291Z,5.00
2018-07-27T12:37:51.746Z,3.83
2018-07-27T12:40:20.155Z,4.60
2018-07-27T12:42:48.649Z,4.13
2018-07-27T12:45:17.287Z,3.50
2018-07-27T12:47:45.791Z,3.53
2018-07-27T12:50:14.316Z,3.80
2018-07-27T12:52:42.983Z,3.90
2018-07-27T12:55:11.501Z,3.47
2018-07-27T12:57:39.987Z,3.77
2018-07-27T13:00:09.675Z,3.70
2018-07-27T13:02:38.237Z,4.23
2018-07-27T13:05:06.980Z,3.47
2018-07-27T13:07:35.421Z,3.80
2018-07-27T13:10:05.366Z,4.20
2018-07-27T13:12:35.319Z,4.27
2018-07-27T13:15:04.253Z,3.83
2018-07-27T13:17:32.682Z,3.80
2018-07-27T13:20:01.211Z,3.50
2018-07-27T13:22:29.706Z,4.20
2018-07-27T13:24:58.460Z,4.17
2018-07-27T13:27:26.999Z,4.10
2018-07-27T13:29:55.871Z,4.60
2018-07-27T13:32:24.353Z,4.20
2018-07-27T13:34:55.120Z,4.20
2018-07-27T13:37:25.775Z,4.37
2018-07-27T13:42:25.503Z,4.07
2018-07-27T13:44:54.086Z,3.90
2018-07-27T13:47:22.735Z,3.90
2018-07-27T13:49:51.188Z,4.80
2018-07-27T13:52:19.692Z,4.67
2018-07-27T13:54:48.352Z,4.00
2018-07-27T13:57:16.880Z,4.60
2018-07-27T13:59:45.491Z,4.13
2018-07-27T14:02:14.310Z,3.97
2018-07-27T14:04:42.758Z,3.50
2018-07-27T14:07:11.974Z,3.90
2018-07-27T14:09:40.507Z,4.07
2018-07-27T14:12:08.909Z,3.73
2018-07-27T14:14:37.451Z,3.93
2018-07-27T14:17:06.415Z,4.50
2018-07-27T14:19:34.907Z,4.30
2018-07-27T14:22:03.339Z,4.40
2018-07-27T14:24:32.146Z,4.50
2018-07-27T14:27:00.559Z,3.90
2018-07-27T14:29:29.079Z,3.90
2018-07-27T14:31:57.576Z,4.17
2018-07-27T14:34:25.996Z,4.47
2018-07-27T14:36:54.489Z,4.20
2018-07-27T14:39:23.176Z,5.60
2018-07-27T14:41:51.621Z,3.80
2018-07-27T14:44:20.135Z,4.20
2018-07-27T14:46:48.751Z,4.70
2018-07-27T14:49:17.494Z,4.20
2018-07-27T14:51:45.975Z,4.60
2018-07-27T14:54:15.367Z,5.20
2018-07-27T14:56:44.117Z,4.20
2018-07-27T14:59:12.927Z,3.73
2018-07-27T15:01:41.751Z,4.13
2018-07-27T15:04:11.062Z,4.80
2018-07-27T15:06:39.754Z,4.80
2018-07-27T15:09:11.292Z,4.73
2018-07-27T15:11:39.791Z,4.10
2018-07-27T15:14:08.305Z,3.60
2018-07-27T15:16:36.910Z,4.30
2018-07-27T15:19:05.596Z,4.03
2018-07-27T15:21:34.075Z,4.33
2018-07-27T15:24:02.652Z,4.07
2018-07-27T15:26:31.131Z,3.73
2018-07-27T15:28:59.672Z,3.83
2018-07-27T15:31:28.299Z,3.93
2018-07-27T15:33:56.871Z,4.50
2018-07-27T15:36:25.355Z,4.10
2018-07-27T15:38:53.826Z,4.20
2018-07-27T15:41:22.402Z,4.00
2018-07-27T15:43:50.827Z,4.50
2018-07-27T15:46:19.671Z,4.20
2018-07-27T15:48:48.142Z,4.10
2018-07-27T15:51:16.617Z,4.43
2018-07-27T15:53:45.099Z,3.70
2018-07-27T15:56:13.580Z,4.53
2018-07-27T15:58:42.059Z,4.40
2018-07-27T16:01:10.507Z,4.70
2018-07-27T16:03:38.932Z,4.00
2018-07-27T16:06:07.455Z,4.03
2018-07-27T16:08:36.118Z,4.77
2018-07-27T16:11:04.579Z,4.53
2018-07-27T16:13:33.047Z,4.23
2018-07-27T16:16:01.584Z,5.07
2018-07-27T16:18:30.032Z,3.90
2018-07-27T16:20:58.512Z,4.00
2018-07-27T16:23:27.067Z,4.60
2018-07-27T16:25:55.546Z,3.80
2018-07-27T16:28:24.024Z,4.30
2018-07-27T16:30:52.778Z,3.90
2018-07-27T16:33:21.321Z,3.90
2018-07-27T16:35:49.746Z,3.50
2018-07-27T16:38:18.196Z,4.40
2018-07-27T16:40:46.672Z,3.87
2018-07-27T16:43:15.188Z,4.83
2018-07-27T16:45:43.843Z,4.40
2018-07-27T16:48:12.267Z,4.20
2018-07-27T16:50:40.868Z,4.03
2018-07-27T16:53:09.827Z,3.93
2018-07-27T16:55:38.390Z,3.77
2018-07-27T16:58:06.864Z,4.30
2018-07-27T17:00:35.454Z,4.97
2018-07-27T17:03:03.940Z,4.90
2018-07-27T17:05:32.415Z,4.40
2018-07-27T17:08:00.994Z,4.27
2018-07-27T17:10:29.411Z,4.57
2018-07-27T17:12:57.825Z,4.13
2018-07-27T17:15:26.275Z,4.70
2018-07-27T17:17:54.724Z,3.77
2018-07-27T17:20:23.223Z,3.80
2018-07-27T17:22:52.163Z,4.13
2018-07-27T17:25:20.693Z,4.57
2018-07-27T17:27:49.130Z,4.07
2018-07-27T17:30:17.959Z,3.70
2018-07-27T17:32:46.414Z,4.63
2018-07-27T17:35:14.891Z,4.20
2018-07-27T17:37:43.743Z,4.73
2018-07-27T17:40:12.275Z,3.80
2018-07-27T17:42:40.927Z,4.63
2018-07-27T17:45:09.835Z,4.67
2018-07-27T17:47:38.427Z,5.13
2018-07-27T17:50:07.324Z,4.73
2018-07-27T17:52:36.046Z,4.60
2018-07-27T17:55:04.492Z,4.67
2018-07-27T17:57:32.935Z,5.13
2018-07-27T18:00:01.524Z,4.87
2018-07-27T18:02:30.079Z,3.73
2018-07-27T18:04:58.591Z,4.03
2018-07-27T18:07:27.344Z,4.77
2018-07-27T18:09:56.487Z,3.90
2018-07-27T18:12:25.606Z,4.53
2018-07-27T18:14:54.282Z,4.03
2018-07-27T18:17:22.784Z,4.20
2018-07-27T18:19:51.283Z,4.67
2018-07-27T18:22:19.765Z,4.90
2018-07-27T18:24:48.219Z,4.50
2018-07-27T18:27:16.775Z,4.60
2018-07-27T18:29:45.617Z,4.27
2018-07-27T18:32:14.497Z,4.53
2018-07-27T18:34:42.895Z,4.87
2018-07-27T18:37:11.810Z,4.57
2018-07-27T18:39:40.316Z,4.13
2018-07-27T18:42:08.742Z,4.53
2018-07-27T18:44:37.334Z,5.10
2018-07-27T18:47:05.734Z,4.60
2018-07-27T18:49:34.136Z,4.60
2018-07-27T18:52:02.794Z,4.90
2018-07-27T18:54:31.238Z,5.00
2018-07-27T18:56:59.685Z,5.30
2018-07-27T18:59:28.256Z,5.07
2018-07-27T19:01:56.681Z,4.83
2018-07-27T19:04:25.163Z,4.70
2018-07-27T19:06:53.763Z,4.47
2018-07-27T19:09:22.270Z,4.67
2018-07-27T19:11:50.900Z,6.20
2018-07-27T19:14:19.739Z,5.57
2018-07-27T19:16:48.199Z,4.17
2018-07-27T19:19:16.618Z,4.73
2018-07-27T19:21:45.536Z,4.63
2018-07-27T19:24:13.939Z,4.87
2018-07-27T19:26:42.594Z,4.80
2018-07-27T19:29:11.275Z,4.97
2018-07-27T19:31:39.775Z,5.00
2018-07-27T19:34:08.331Z,5.50
2018-07-27T19:36:36.824Z,4.70
2018-07-27T19:39:08.031Z,5.30
2018-07-27T19:41:36.515Z,6.33
2018-07-27T19:44:05.036Z,5.00
2018-07-27T19:46:33.611Z,4.70
2018-07-27T19:49:02.274Z,5.10
2018-07-27T19:51:30.930Z,5.23
2018-07-27T19:53:59.534Z,4.70
2018-07-27T19:56:28.050Z,6.10
2018-07-27T19:58:56.579Z,5.50
2018-07-27T20:01:25.089Z,6.27
2018-07-27T20:03:53.810Z,4.63
2018-07-27T20:06:22.369Z,4.43
2018-07-27T20:08:50.883Z,5.87
2018-07-27T20:11:19.397Z,5.40
2018-07-27T20:13:48.084Z,5.50
2018-07-27T20:16:16.651Z,5.20
2018-07-27T20:18:45.615Z,5.30
2018-07-27T20:21:14.360Z,6.30
2018-07-27T20:23:43.056Z,5.10
2018-07-27T20:26:11.818Z,5.60
2018-07-27T20:28:40.455Z,5.37
2018-07-27T20:31:08.975Z,5.70
2018-07-27T20:33:37.589Z,5.13
2018-07-27T20:36:06.615Z,5.50
2018-07-27T20:38:35.263Z,5.70
2018-07-27T20:41:03.810Z,4.63
2018-07-27T20:43:32.404Z,6.47
2018-07-27T20:46:00.822Z,5.90
2018-07-27T20:48:29.485Z,5.60
2018-07-27T20:50:57.935Z,5.80
2018-07-27T20:53:26.452Z,6.20
2018-07-27T20:55:55.173Z,5.63
2018-07-27T20:58:23.678Z,5.47
2018-07-27T21:00:52.311Z,6.00
2018-07-27T21:03:20.839Z,6.97
2018-07-27T21:05:49.407Z,5.50
2018-07-27T21:08:17.871Z,5.27
2018-07-27T21:10:46.653Z,6.83
2018-07-27T21:13:15.100Z,5.90
2018-07-27T21:15:43.599Z,5.23
2018-07-27T21:18:12.044Z,5.47
2018-07-27T21:20:40.536Z,5.70
2018-07-27T21:23:09.379Z,5.87
2018-07-27T21:25:37.923Z,5.87
2018-07-27T21:28:06.563Z,5.10
2018-07-27T21:30:35.062Z,5.53
2018-07-27T21:33:03.551Z,6.00
2018-07-27T21:35:32.056Z,5.93
2018-07-27T21:38:00.853Z,6.37
2018-07-27T21:40:29.517Z,5.57
2018-07-27T21:42:58.021Z,5.33
2018-07-27T21:45:26.474Z,6.67
2018-07-27T21:47:55.135Z,6.90
2018-07-27T21:50:23.584Z,6.23
2018-07-27T21:52:52.255Z,6.03
2018-07-27T21:55:21.018Z,7.17
2018-07-27T21:57:49.590Z,6.60
2018-07-27T22:00:18.023Z,7.17
2018-07-27T22:02:46.790Z,6.73
2018-07-27T22:05:15.234Z,6.50
2018-07-27T22:07:43.979Z,6.30
2018-07-27T22:10:12.497Z,6.63
2018-07-27T22:12:41.012Z,6.10
2018-07-27T22:15:14.869Z,6.20
2018-07-27T22:17:43.380Z,6.60
2018-07-27T22:20:11.887Z,6.37
2018-07-27T22:22:40.411Z,6.33
2018-07-27T22:25:08.873Z,5.83
2018-07-27T22:27:37.365Z,5.90
2018-07-27T22:30:08.142Z,6.30
2018-07-27T22:32:36.707Z,5.47
2018-07-27T22:35:05.290Z,5.60
2018-07-27T22:37:33.847Z,5.80
2018-07-27T22:40:04.664Z,6.20
2018-07-27T22:42:33.151Z,5.20
2018-07-27T22:45:01.603Z,5.40
2018-07-27T22:47:30.472Z,5.70
2018-07-27T22:49:59.078Z,6.37
2018-07-27T22:52:27.585Z,5.43
2018-07-27T22:54:56.033Z,6.30
2018-07-27T22:57:24.892Z,5.90
2018-07-27T22:59:53.439Z,7.33
2018-07-27T23:02:21.955Z,5.73
2018-07-27T23:04:50.591Z,5.40
2018-07-27T23:07:19.003Z,5.93
2018-07-27T23:09:47.427Z,6.03
2018-07-27T23:12:15.919Z,5.90
2018-07-27T23:14:44.324Z,5.47
2018-07-27T23:17:12.778Z,5.80
2018-07-27T23:19:41.530Z,6.50
2018-07-27T23:22:09.943Z,6.57
2018-07-27T23:24:38.452Z,5.97
2018-07-27T23:27:06.900Z,6.27
2018-07-27T23:29:35.483Z,5.80
2018-07-27T23:32:03.901Z,6.17
2018-07-27T23:34:32.676Z,6.30
2018-07-27T23:37:01.259Z,6.20
2018-07-27T23:39:29.791Z,7.27
2018-07-27T23:41:59.267Z,5.80
2018-07-27T23:44:27.711Z,6.70
2018-07-27T23:46:56.223Z,6.67
2018-07-27T23:49:24.991Z,6.40
2018-07-27T23:51:53.411Z,6.40
2018-07-27T23:54:21.999Z,6.40
2018-07-27T23:56:50.582Z,7.70
2018-07-27T23:59:19.007Z,6.53
